createdAt,value
2023-05-06T00:00:04.788Z,0.00
2023-05-06T00:01:04.764Z,0.00
2023-05-06T00:02:04.743Z,0.00
2023-05-06T00:03:04.855Z,0.00
2023-05-06T00:04:04.911Z,0.00
2023-05-06T00:05:04.730Z,0.00
2023-05-06T00:06:04.659Z,0.00
2023-05-06T00:07:04.683Z,0.00
2023-05-06T00:08:04.645Z,0.00
2023-05-06T00:09:04.665Z,0.00
2023-05-06T00:10:04.617Z,0.00
2023-05-06T00:11:04.642Z,0.00
2023-05-06T00:12:04.577Z,0.00
2023-05-06T00:13:04.665Z,0.00
2023-05-06T00:14:04.596Z,0.00
2023-05-06T00:15:04.600Z,0.00
2023-05-06T00:16:04.608Z,0.00
2023-05-06T00:17:04.573Z,0.00
2023-05-06T00:18:04.630Z,0.00
2023-05-06T00:19:04.532Z,0.00
2023-05-06T00:20:04.539Z,0.00
2023-05-06T00:21:04.505Z,0.00
2023-05-06T00:22:04.508Z,0.00
2023-05-06T00:23:04.475Z,0.00
2023-05-06T00:24:04.442Z,0.00
2023-05-06T00:25:04.474Z,0.00
2023-05-06T00:26:04.471Z,0.00
2023-05-06T00:27:04.428Z,0.00
2023-05-06T00:28:04.395Z,0.00
2023-05-06T00:29:04.415Z,0.00
2023-05-06T00:30:04.403Z,0.00
2023-05-06T00:31:04.409Z,0.00
2023-05-06T00:32:04.457Z,0.00
2023-05-06T00:33:04.409Z,0.00
2023-05-06T00:34:04.346Z,0.00
2023-05-06T00:35:04.394Z,0.00
2023-05-06T00:36:04.349Z,0.00
2023-05-06T00:37:04.341Z,0.00
2023-05-06T00:38:04.295Z,0.00
2023-05-06T00:39:04.327Z,0.00
2023-05-06T00:40:04.301Z,0.00
2023-05-06T00:41:04.292Z,0.00
2023-05-06T00:42:04.413Z,0.00
2023-05-06T00:43:04.396Z,0.00
2023-05-06T00:44:04.251Z,0.00
2023-05-06T00:45:04.223Z,0.00
2023-05-06T00:46:04.292Z,0.00
2023-05-06T00:47:04.218Z,0.00
2023-05-06T00:48:04.257Z,0.00
2023-05-06T00:49:04.234Z,0.00
2023-05-06T00:50:04.175Z,0.00
2023-05-06T00:51:04.184Z,0.00
2023-05-06T00:52:04.134Z,0.00
2023-05-06T00:53:04.186Z,0.00
2023-05-06T00:54:04.111Z,0.00
2023-05-06T00:55:04.119Z,0.00
2023-05-06T00:56:04.096Z,0.00
2023-05-06T00:57:04.179Z,0.00
2023-05-06T00:58:04.122Z,0.00
2023-05-06T00:59:04.085Z,0.00
2023-05-06T01:00:04.066Z,0.00
2023-05-06T01:01:04.062Z,0.00
2023-05-06T01:02:04.117Z,0.00
2023-05-06T01:03:04.212Z,0.00
2023-05-06T01:04:04.036Z,0.00
2023-05-06T01:05:04.103Z,0.00
2023-05-06T01:06:03.983Z,0.00
2023-05-06T01:07:04.008Z,0.00
2023-05-06T01:08:03.984Z,0.00
2023-05-06T01:09:03.979Z,0.00
2023-05-06T01:10:03.961Z,0.00
2023-05-06T01:11:03.938Z,0.00
2023-05-06T01:12:03.920Z,0.00
2023-05-06T01:13:03.978Z,0.00
2023-05-06T01:14:03.898Z,0.00
2023-05-06T01:15:03.997Z,0.00
2023-05-06T01:16:03.865Z,0.00
2023-05-06T01:17:03.989Z,0.00
2023-05-06T01:18:03.898Z,0.00
2023-05-06T01:19:03.861Z,0.00
2023-05-06T01:20:03.829Z,0.00
2023-05-06T01:21:03.869Z,0.00
2023-05-06T01:22:03.795Z,0.00
2023-05-06T01:23:03.811Z,0.00
2023-05-06T01:24:03.756Z,0.00
2023-05-06T01:25:03.815Z,0.00
2023-05-06T01:26:03.752Z,0.00
2023-05-06T01:27:03.771Z,0.00
2023-05-06T01:28:03.733Z,0.00
2023-05-06T01:29:03.739Z,0.00
2023-05-06T01:30:03.767Z,0.00
2023-05-06T01:31:03.805Z,0.00
2023-05-06T01:32:03.690Z,0.00
2023-05-06T01:33:03.813Z,0.00
2023-05-06T01:34:03.688Z,0.00
2023-05-06T01:35:03.667Z,0.00
2023-05-06T01:36:03.677Z,0.00
2023-05-06T01:37:03.651Z,0.00
2023-05-06T01:38:03.636Z,0.00
2023-05-06T01:39:03.664Z,0.00
2023-05-06T01:40:03.659Z,0.00
2023-05-06T01:41:03.618Z,0.00
2023-05-06T01:42:03.580Z,0.00
2023-05-06T01:43:03.606Z,0.00
2023-05-06T01:44:03.570Z,0.00
2023-05-06T01:45:03.540Z,0.00
2023-05-06T01:46:03.578Z,0.00
2023-05-06T01:47:03.543Z,0.00
2023-05-06T01:48:03.623Z,0.00
2023-05-06T01:49:03.528Z,0.00
2023-05-06T01:50:03.488Z,0.00
2023-05-06T01:51:03.492Z,0.00
2023-05-06T01:52:03.523Z,0.00
2023-05-06T01:53:03.650Z,0.00
2023-05-06T01:54:03.454Z,0.00
2023-05-06T01:55:03.491Z,0.00
2023-05-06T01:56:03.418Z,0.00
2023-05-06T01:57:03.423Z,0.00
2023-05-06T01:58:03.390Z,0.00
2023-05-06T01:59:03.414Z,0.00
2023-05-06T02:00:03.367Z,0.00
2023-05-06T02:01:03.388Z,0.00
2023-05-06T02:02:03.367Z,0.00
2023-05-06T02:03:03.568Z,0.00
2023-05-06T02:04:03.384Z,0.00
2023-05-06T02:05:03.346Z,0.00
2023-05-06T02:06:03.288Z,0.00
2023-05-06T02:07:03.317Z,0.00
2023-05-06T02:08:03.288Z,0.00
2023-05-06T02:09:03.302Z,0.00
2023-05-06T02:10:03.237Z,0.00
2023-05-06T02:11:03.268Z,0.00
2023-05-06T02:12:03.312Z,0.00
2023-05-06T02:13:03.298Z,0.00
2023-05-06T02:14:03.251Z,0.00
2023-05-06T02:15:03.235Z,0.00
2023-05-06T02:16:03.302Z,0.00
2023-05-06T02:17:03.195Z,0.00
2023-05-06T02:18:03.253Z,0.00
2023-05-06T02:19:03.189Z,0.00
2023-05-06T02:20:03.136Z,0.00
2023-05-06T02:21:03.204Z,0.00
2023-05-06T02:22:03.133Z,0.00
2023-05-06T02:23:03.138Z,0.00
2023-05-06T02:24:03.095Z,0.00
2023-05-06T02:25:03.121Z,0.00
2023-05-06T02:26:03.062Z,0.00
2023-05-06T02:27:03.131Z,0.00
2023-05-06T02:28:03.148Z,0.00
2023-05-06T02:29:03.083Z,0.00
2023-05-06T02:30:03.051Z,0.00
2023-05-06T02:31:03.085Z,0.00
2023-05-06T02:32:02.986Z,0.00
2023-05-06T02:33:03.065Z,0.00
2023-05-06T02:34:02.980Z,0.00
2023-05-06T02:35:03.012Z,0.00
2023-05-06T02:36:02.956Z,0.00
2023-05-06T02:37:02.983Z,0.00
2023-05-06T02:38:02.933Z,0.00
2023-05-06T02:39:02.930Z,0.00
2023-05-06T02:40:02.963Z,0.00
2023-05-06T02:41:02.912Z,0.00
2023-05-06T02:42:02.887Z,0.00
2023-05-06T02:43:02.997Z,0.00
2023-05-06T02:44:02.876Z,0.00
2023-05-06T02:45:02.886Z,0.00
2023-05-06T02:46:03.201Z,0.00
2023-05-06T02:47:02.875Z,0.00
2023-05-06T02:48:02.848Z,0.00
2023-05-06T02:49:02.828Z,0.00
2023-05-06T02:50:02.776Z,0.00
2023-05-06T02:51:02.822Z,0.00
2023-05-06T02:52:02.773Z,0.00
2023-05-06T02:53:02.800Z,0.00
2023-05-06T02:54:02.759Z,0.00
2023-05-06T02:55:02.768Z,0.00
2023-05-06T02:56:02.708Z,0.00
2023-05-06T02:57:02.721Z,0.00
2023-05-06T02:58:02.743Z,0.00
2023-05-06T02:59:02.705Z,0.00
2023-05-06T03:00:02.702Z,0.00
2023-05-06T03:01:02.678Z,0.00
2023-05-06T03:02:02.639Z,0.00
2023-05-06T03:03:02.774Z,0.00
2023-05-06T03:04:02.662Z,0.00
2023-05-06T03:05:02.620Z,0.00
2023-05-06T03:06:02.617Z,0.00
2023-05-06T03:07:02.608Z,0.00
2023-05-06T03:08:02.614Z,0.00
2023-05-06T03:09:02.580Z,0.00
2023-05-06T03:10:02.557Z,0.00
2023-05-06T03:11:02.548Z,0.00
2023-05-06T03:12:02.548Z,0.00
2023-05-06T03:13:02.568Z,0.00
2023-05-06T03:14:02.510Z,0.00
2023-05-06T03:15:02.515Z,0.00
2023-05-06T03:16:02.528Z,0.00
2023-05-06T03:17:02.474Z,0.00
2023-05-06T03:18:02.552Z,0.00
2023-05-06T03:19:02.469Z,0.00
2023-05-06T03:20:02.494Z,0.00
2023-05-06T03:21:02.481Z,0.00
2023-05-06T03:22:02.443Z,0.00
2023-05-06T03:23:02.443Z,0.00
2023-05-06T03:24:02.493Z,0.00
2023-05-06T03:25:02.381Z,0.00
2023-05-06T03:26:02.402Z,0.00
2023-05-06T03:27:02.465Z,0.00
2023-05-06T03:28:02.677Z,0.00
2023-05-06T03:29:02.352Z,4.00
2023-05-06T03:30:02.352Z,4.00
2023-05-06T03:31:02.332Z,4.00
2023-05-06T03:32:02.396Z,0.00
2023-05-06T03:33:02.319Z,4.00
2023-05-06T03:34:02.312Z,4.00
2023-05-06T03:35:02.290Z,4.00
2023-05-06T03:36:02.266Z,4.00
2023-05-06T03:37:02.410Z,8.00
2023-05-06T03:38:02.256Z,8.00
2023-05-06T03:39:02.229Z,8.00
2023-05-06T03:40:02.251Z,8.00
2023-05-06T03:41:02.367Z,12.00
2023-05-06T03:42:02.223Z,12.00
2023-05-06T03:43:02.178Z,12.00
2023-05-06T03:44:02.751Z,16.00
2023-05-06T03:45:02.161Z,16.00
2023-05-06T03:46:02.227Z,20.00
2023-05-06T03:47:02.714Z,20.00
2023-05-06T03:48:02.241Z,24.00
2023-05-06T03:49:02.114Z,28.00
2023-05-06T03:50:02.144Z,32.00
2023-05-06T03:51:02.140Z,36.00
2023-05-06T03:52:02.120Z,40.00
2023-05-06T03:53:02.051Z,40.00
2023-05-06T03:54:02.086Z,48.00
2023-05-06T03:55:02.135Z,48.00
2023-05-06T03:56:02.118Z,52.00
2023-05-06T03:57:02.005Z,60.00
2023-05-06T03:58:02.067Z,68.00
2023-05-06T03:59:01.985Z,72.00
2023-05-06T04:00:01.999Z,76.00
2023-05-06T04:01:01.961Z,88.00
2023-05-06T04:02:02.011Z,92.00
2023-05-06T04:03:01.971Z,104.00
2023-05-06T04:04:02.140Z,112.00
2023-05-06T04:05:01.934Z,120.00
2023-05-06T04:06:01.950Z,136.00
2023-05-06T04:07:01.901Z,144.00
2023-05-06T04:08:02.092Z,156.00
2023-05-06T04:09:01.893Z,168.00
2023-05-06T04:10:01.876Z,180.00
2023-05-06T04:11:01.842Z,192.00
2023-05-06T04:12:01.927Z,200.00
2023-05-06T04:13:01.871Z,212.00
2023-05-06T04:14:01.862Z,224.00
2023-05-06T04:15:01.808Z,236.00
2023-05-06T04:16:01.948Z,248.00
2023-05-06T04:17:02.094Z,264.00
2023-05-06T04:18:01.859Z,276.00
2023-05-06T04:19:02.532Z,284.00
2023-05-06T04:20:01.772Z,300.00
2023-05-06T04:21:01.787Z,312.00
2023-05-06T04:22:01.759Z,328.00
2023-05-06T04:23:01.827Z,336.00
2023-05-06T04:24:01.751Z,348.00
2023-05-06T04:25:01.694Z,364.00
2023-05-06T04:26:01.702Z,372.00
2023-05-06T04:27:01.715Z,388.00
2023-05-06T04:28:02.167Z,404.00
2023-05-06T04:29:01.645Z,420.00
2023-05-06T04:30:01.699Z,440.00
2023-05-06T04:31:01.613Z,448.00
2023-05-06T04:32:01.750Z,468.00
2023-05-06T04:33:01.611Z,492.00
2023-05-06T04:34:01.675Z,504.00
2023-05-06T04:35:01.572Z,516.00
2023-05-06T04:36:01.681Z,540.00
2023-05-06T04:37:01.535Z,560.00
2023-05-06T04:38:03.675Z,580.00
2023-05-06T04:39:01.587Z,588.00
2023-05-06T04:40:01.548Z,600.00
2023-05-06T04:41:01.611Z,612.00
2023-05-06T04:42:01.590Z,620.00
2023-05-06T04:43:01.486Z,624.00
2023-05-06T04:44:01.546Z,636.00
2023-05-06T04:45:01.515Z,664.00
2023-05-06T04:46:01.569Z,676.00
2023-05-06T04:47:01.489Z,724.00
2023-05-06T04:48:01.540Z,776.00
2023-05-06T04:49:01.450Z,788.00
2023-05-06T04:50:01.454Z,860.00
2023-05-06T04:51:01.426Z,892.00
2023-05-06T04:52:01.401Z,924.00
2023-05-06T04:53:01.438Z,908.00
2023-05-06T04:54:01.404Z,876.00
2023-05-06T04:55:01.437Z,900.00
2023-05-06T04:56:01.377Z,972.00
2023-05-06T04:57:01.359Z,1044.00
2023-05-06T04:58:01.389Z,1060.00
2023-05-06T04:59:01.283Z,1152.00
2023-05-06T05:00:01.353Z,1256.00
2023-05-06T05:01:01.304Z,1316.00
2023-05-06T05:02:01.718Z,1348.00
2023-05-06T05:03:01.464Z,1344.00
2023-05-06T05:04:01.266Z,1228.00
2023-05-06T05:05:01.249Z,1252.00
2023-05-06T05:06:01.262Z,1376.00
2023-05-06T05:07:01.212Z,1444.00
2023-05-06T05:08:01.219Z,1504.00
2023-05-06T05:09:01.210Z,1604.00
2023-05-06T05:10:01.467Z,1712.00
2023-05-06T05:11:01.168Z,1764.00
2023-05-06T05:12:01.167Z,1800.00
2023-05-06T05:13:01.238Z,1804.00
2023-05-06T05:14:02.319Z,1784.00
2023-05-06T05:15:01.119Z,1672.00
2023-05-06T05:16:01.149Z,1632.00
2023-05-06T05:17:01.107Z,1592.00
2023-05-06T05:18:01.211Z,1592.00
2023-05-06T05:19:03.538Z,1604.00
2023-05-06T05:20:01.084Z,1616.00
2023-05-06T05:21:01.081Z,1600.00
2023-05-06T05:22:01.040Z,1624.00
2023-05-06T05:23:01.021Z,1684.00
2023-05-06T05:24:01.059Z,1720.00
2023-05-06T05:25:01.008Z,1736.00
2023-05-06T05:26:01.004Z,1752.00
2023-05-06T05:27:01.003Z,1752.00
2023-05-06T05:28:00.979Z,1780.00
2023-05-06T05:29:00.995Z,1812.00
2023-05-06T05:30:01.016Z,1832.00
2023-05-06T05:31:00.952Z,1856.00
2023-05-06T05:32:00.988Z,1884.00
2023-05-06T05:33:01.025Z,1932.00
2023-05-06T05:34:00.897Z,1956.00
2023-05-06T05:35:00.919Z,1976.00
2023-05-06T05:36:00.877Z,2012.00
2023-05-06T05:37:00.875Z,2048.00
2023-05-06T05:38:00.898Z,2048.00
2023-05-06T05:39:00.845Z,2040.00
2023-05-06T05:40:00.850Z,2052.00
2023-05-06T05:41:00.796Z,2104.00
2023-05-06T05:42:00.827Z,2196.00
2023-05-06T05:43:00.809Z,2216.00
2023-05-06T05:44:00.815Z,2208.00
2023-05-06T05:45:00.777Z,2216.00
2023-05-06T05:46:00.842Z,2272.00
2023-05-06T05:47:00.732Z,2268.00
2023-05-06T05:48:00.956Z,2368.00
2023-05-06T05:49:00.736Z,2436.00
2023-05-06T05:50:00.753Z,2388.00
2023-05-06T05:51:00.800Z,2324.00
2023-05-06T05:52:00.778Z,2336.00
2023-05-06T05:53:00.680Z,2432.00
2023-05-06T05:54:00.691Z,2480.00
2023-05-06T05:55:00.654Z,2556.00
2023-05-06T05:56:00.708Z,2648.00
2023-05-06T05:57:00.636Z,2732.00
2023-05-06T05:58:00.712Z,2736.00
2023-05-06T05:59:00.602Z,2712.00
2023-05-06T06:00:00.617Z,2712.00
2023-05-06T06:01:00.622Z,2684.00
2023-05-06T06:02:00.637Z,2724.00
2023-05-06T06:03:00.731Z,2828.00
2023-05-06T06:04:00.783Z,2920.00
2023-05-06T06:05:00.630Z,2916.00
2023-05-06T06:06:00.565Z,2976.00
2023-05-06T06:07:00.689Z,3132.00
2023-05-06T06:08:02.924Z,3084.00
2023-05-06T06:09:00.588Z,3116.00
2023-05-06T06:10:00.545Z,2988.00
2023-05-06T06:11:00.522Z,2984.00
2023-05-06T06:12:00.613Z,3020.00
2023-05-06T06:13:00.503Z,3004.00
2023-05-06T06:14:00.549Z,3008.00
2023-05-06T06:15:00.459Z,2992.00
2023-05-06T06:16:00.543Z,3036.00
2023-05-06T06:17:00.539Z,3192.00
2023-05-06T06:18:00.517Z,3328.00
2023-05-06T06:19:00.423Z,3344.00
2023-05-06T06:20:00.513Z,3332.00
2023-05-06T06:21:00.394Z,3208.00
2023-05-06T06:22:00.453Z,3184.00
2023-05-06T06:23:00.345Z,3432.00
2023-05-06T06:24:00.381Z,3600.00
2023-05-06T06:25:00.326Z,3564.00
2023-05-06T06:26:00.332Z,3544.00
2023-05-06T06:27:00.316Z,3448.00
2023-05-06T06:28:00.302Z,3376.00
2023-05-06T06:29:00.433Z,3420.00
2023-05-06T06:30:00.675Z,3492.00
2023-05-06T06:31:01.115Z,3576.00
2023-05-06T06:32:00.508Z,3644.00
2023-05-06T06:33:00.368Z,3616.00
2023-05-06T06:34:00.233Z,3520.00
2023-05-06T06:35:00.217Z,3616.00
2023-05-06T06:36:00.265Z,3764.00
2023-05-06T06:37:00.211Z,3936.00
2023-05-06T06:38:00.354Z,4112.00
2023-05-06T06:39:00.163Z,4248.00
2023-05-06T06:40:00.194Z,3944.00
2023-05-06T06:41:00.155Z,3708.00
2023-05-06T06:42:00.159Z,3792.00
2023-05-06T06:43:00.163Z,3948.00
2023-05-06T06:44:00.156Z,4080.00
2023-05-06T06:45:00.190Z,3992.00
2023-05-06T06:46:00.159Z,3876.00
2023-05-06T06:47:00.093Z,4020.00
2023-05-06T06:48:00.171Z,4240.00
2023-05-06T06:49:00.162Z,4384.00
2023-05-06T06:50:00.069Z,4492.00
2023-05-06T06:51:00.970Z,4544.00
2023-05-06T06:52:00.268Z,4312.00
2023-05-06T06:53:00.036Z,4128.00
2023-05-06T06:54:00.028Z,4204.00
2023-05-06T06:55:00.003Z,4220.00
2023-05-06T06:55:59.998Z,4288.00
2023-05-06T06:57:00.184Z,4412.00
2023-05-06T06:57:59.967Z,4516.00
2023-05-06T06:58:59.945Z,4724.00
2023-05-06T06:59:59.948Z,4828.00
2023-05-06T07:00:59.976Z,4752.00
2023-05-06T07:01:59.927Z,4664.00
2023-05-06T07:02:59.922Z,4568.00
2023-05-06T07:03:59.929Z,4568.00
2023-05-06T07:04:59.860Z,4420.00
2023-05-06T07:06:00.000Z,4140.00
2023-05-06T07:06:59.828Z,4020.00
2023-05-06T07:07:59.891Z,4088.00
2023-05-06T07:08:59.808Z,4248.00
2023-05-06T07:09:59.856Z,3836.00
2023-05-06T07:10:59.829Z,3688.00
2023-05-06T07:11:59.808Z,3516.00
2023-05-06T07:12:59.847Z,3288.00
2023-05-06T07:13:59.793Z,3652.00
2023-05-06T07:14:59.747Z,3708.00
2023-05-06T07:15:59.752Z,3328.00
2023-05-06T07:16:59.755Z,2980.00
2023-05-06T07:17:59.829Z,2936.00
2023-05-06T07:18:59.704Z,2980.00
2023-05-06T07:19:59.717Z,2768.00
2023-05-06T07:20:59.677Z,2728.00
2023-05-06T07:21:59.724Z,3084.00
2023-05-06T07:22:59.640Z,3260.00
2023-05-06T07:23:59.680Z,3448.00
2023-05-06T07:24:59.635Z,3732.00
2023-05-06T07:25:59.669Z,3528.00
2023-05-06T07:26:59.596Z,3584.00
2023-05-06T07:27:59.635Z,3592.00
2023-05-06T07:28:59.780Z,3564.00
2023-05-06T07:29:59.609Z,3172.00
2023-05-06T07:30:59.685Z,2760.00
2023-05-06T07:31:59.543Z,2572.00
2023-05-06T07:32:59.642Z,2720.00
2023-05-06T07:33:59.756Z,2760.00
2023-05-06T07:34:59.992Z,2540.00
2023-05-06T07:35:59.516Z,2464.00
2023-05-06T07:36:59.554Z,2984.00
2023-05-06T07:37:59.506Z,3132.00
2023-05-06T07:38:59.508Z,3248.00
2023-05-06T07:39:59.465Z,3368.00
2023-05-06T07:40:59.522Z,3428.00
2023-05-06T07:42:00.000Z,3248.00
2023-05-06T07:42:59.454Z,3432.00
2023-05-06T07:44:00.261Z,3300.00
2023-05-06T07:44:59.481Z,2940.00
2023-05-06T07:45:59.456Z,2892.00
2023-05-06T07:46:59.538Z,2772.00
2023-05-06T07:47:59.413Z,2612.00
2023-05-06T07:48:59.425Z,2328.00
2023-05-06T07:49:59.404Z,2100.00
2023-05-06T07:50:59.426Z,1968.00
2023-05-06T07:51:59.338Z,1968.00
2023-05-06T07:52:59.423Z,1992.00
2023-05-06T07:53:59.304Z,2052.00
2023-05-06T07:54:59.386Z,2124.00
2023-05-06T07:55:59.275Z,2044.00
2023-05-06T07:56:59.352Z,1928.00
2023-05-06T07:57:59.267Z,1872.00
2023-05-06T07:58:59.348Z,1844.00
2023-05-06T07:59:59.254Z,1836.00
2023-05-06T08:00:59.259Z,1824.00
2023-05-06T08:01:59.234Z,1812.00
2023-05-06T08:02:59.272Z,1856.00
2023-05-06T08:03:59.323Z,1824.00
2023-05-06T08:04:59.206Z,1836.00
2023-05-06T08:05:59.206Z,1828.00
2023-05-06T08:06:59.204Z,1820.00
2023-05-06T08:07:59.415Z,1820.00
2023-05-06T08:08:59.194Z,1836.00
2023-05-06T08:09:59.521Z,1856.00
2023-05-06T08:10:59.141Z,1864.00
2023-05-06T08:11:59.096Z,1884.00
2023-05-06T08:12:59.188Z,1900.00
2023-05-06T08:13:59.084Z,1912.00
2023-05-06T08:14:59.106Z,1924.00
2023-05-06T08:15:59.099Z,1928.00
2023-05-06T08:16:59.118Z,1932.00
2023-05-06T08:18:04.374Z,1928.00
2023-05-06T08:19:00.195Z,1928.00
2023-05-06T08:19:59.085Z,1928.00
2023-05-06T08:20:59.179Z,1928.00
2023-05-06T08:21:59.005Z,1932.00
2023-05-06T08:22:59.008Z,1924.00
2023-05-06T08:23:58.976Z,1924.00
2023-05-06T08:24:59.101Z,1916.00
2023-05-06T08:25:58.992Z,1908.00
2023-05-06T08:26:58.990Z,1884.00
2023-05-06T08:27:58.950Z,1892.00
2023-05-06T08:28:58.943Z,1904.00
2023-05-06T08:29:58.933Z,1908.00
2023-05-06T08:30:58.974Z,1924.00
2023-05-06T08:31:58.930Z,1952.00
2023-05-06T08:32:58.949Z,1992.00
2023-05-06T08:33:58.876Z,2028.00
2023-05-06T08:34:58.882Z,2064.00
2023-05-06T08:35:58.882Z,2108.00
2023-05-06T08:36:58.830Z,2260.00
2023-05-06T08:37:58.826Z,2180.00
2023-05-06T08:38:58.887Z,2208.00
2023-05-06T08:39:59.988Z,2244.00
2023-05-06T08:40:58.812Z,2276.00
2023-05-06T08:41:58.763Z,2380.00
2023-05-06T08:42:58.794Z,2500.00
2023-05-06T08:43:58.755Z,2548.00
2023-05-06T08:44:58.915Z,2684.00
2023-05-06T08:45:59.101Z,2588.00
2023-05-06T08:46:58.752Z,2264.00
2023-05-06T08:47:58.732Z,2284.00
2023-05-06T08:48:58.708Z,2584.00
2023-05-06T08:49:58.724Z,2924.00
2023-05-06T08:50:58.683Z,2884.00
2023-05-06T08:51:58.642Z,2760.00
2023-05-06T08:52:58.660Z,2672.00
2023-05-06T08:53:58.650Z,2768.00
2023-05-06T08:54:58.715Z,2932.00
2023-05-06T08:55:58.633Z,3056.00
2023-05-06T08:56:58.692Z,3136.00
2023-05-06T08:57:58.665Z,3184.00
2023-05-06T08:58:58.654Z,3384.00
2023-05-06T08:59:58.589Z,3384.00
2023-05-06T09:00:58.713Z,3440.00
2023-05-06T09:01:58.589Z,3648.00
2023-05-06T09:02:58.686Z,3916.00
2023-05-06T09:03:58.579Z,3680.00
2023-05-06T09:04:58.542Z,3640.00
2023-05-06T09:05:58.622Z,3576.00
2023-05-06T09:06:58.539Z,3388.00
2023-05-06T09:07:58.527Z,3176.00
2023-05-06T09:08:58.488Z,3100.00
2023-05-06T09:09:58.495Z,3008.00
2023-05-06T09:10:58.485Z,3044.00
2023-05-06T09:11:58.494Z,3124.00
2023-05-06T09:12:58.577Z,3128.00
2023-05-06T09:13:58.484Z,3324.00
2023-05-06T09:14:58.437Z,3300.00
2023-05-06T09:15:58.452Z,3268.00
2023-05-06T09:16:58.582Z,3336.00
2023-05-06T09:17:58.402Z,3284.00
2023-05-06T09:18:58.554Z,3248.00
2023-05-06T09:19:58.352Z,3320.00
2023-05-06T09:21:00.633Z,3280.00
2023-05-06T09:21:58.310Z,3248.00
2023-05-06T09:22:58.385Z,3312.00
2023-05-06T09:23:58.290Z,3428.00
2023-05-06T09:24:58.403Z,3488.00
2023-05-06T09:25:58.291Z,3452.00
2023-05-06T09:26:58.332Z,3356.00
2023-05-06T09:27:58.261Z,3400.00
2023-05-06T09:28:58.288Z,3376.00
2023-05-06T09:29:58.236Z,3260.00
2023-05-06T09:30:58.307Z,2984.00
2023-05-06T09:31:58.220Z,2532.00
2023-05-06T09:32:58.246Z,2452.00
2023-05-06T09:33:58.307Z,2756.00
2023-05-06T09:34:58.286Z,2456.00
2023-05-06T09:35:58.139Z,2416.00
2023-05-06T09:36:58.173Z,2428.00
2023-05-06T09:37:58.204Z,2376.00
2023-05-06T09:38:58.288Z,2332.00
2023-05-06T09:39:58.104Z,2328.00
2023-05-06T09:40:58.127Z,2684.00
2023-05-06T09:41:58.177Z,2596.00
2023-05-06T09:42:58.139Z,2584.00
2023-05-06T09:43:58.087Z,2556.00
2023-05-06T09:44:59.891Z,2508.00
2023-05-06T09:45:58.109Z,2516.00
2023-05-06T09:46:58.870Z,2556.00
2023-05-06T09:47:58.089Z,2560.00
2023-05-06T09:48:58.137Z,2552.00
2023-05-06T09:49:58.026Z,2556.00
2023-05-06T09:51:00.000Z,2652.00
2023-05-06T09:51:58.130Z,2592.00
2023-05-06T09:52:58.016Z,2264.00
2023-05-06T09:53:57.986Z,2112.00
2023-05-06T09:54:58.028Z,1988.00
2023-05-06T09:55:57.933Z,1888.00
2023-05-06T09:57:00.435Z,1836.00
2023-05-06T09:57:57.885Z,1796.00
2023-05-06T09:58:57.907Z,1784.00
2023-05-06T09:59:57.866Z,1800.00
2023-05-06T10:00:57.943Z,1788.00
2023-05-06T10:01:57.860Z,1872.00
2023-05-06T10:02:58.047Z,1968.00
2023-05-06T10:03:57.925Z,2240.00
2023-05-06T10:04:58.110Z,2772.00
2023-05-06T10:05:57.857Z,2836.00
2023-05-06T10:06:57.822Z,2796.00
2023-05-06T10:07:57.857Z,2880.00
2023-05-06T10:08:57.797Z,2884.00
2023-05-06T10:09:57.789Z,2924.00
2023-05-06T10:10:57.941Z,3024.00
2023-05-06T10:11:58.029Z,3056.00
2023-05-06T10:12:58.107Z,3004.00
2023-05-06T10:13:57.710Z,2936.00
2023-05-06T10:14:57.726Z,2828.00
2023-05-06T10:15:57.735Z,2972.00
2023-05-06T10:16:57.711Z,3172.00
2023-05-06T10:17:57.744Z,3000.00
2023-05-06T10:18:57.689Z,3220.00
2023-05-06T10:19:57.708Z,3288.00
2023-05-06T10:20:57.678Z,3596.00
2023-05-06T10:21:57.635Z,3740.00
2023-05-06T10:22:57.662Z,3856.00
2023-05-06T10:23:57.656Z,3956.00
2023-05-06T10:24:57.652Z,3884.00
2023-05-06T10:25:57.594Z,3948.00
2023-05-06T10:26:57.598Z,4240.00
2023-05-06T10:27:57.571Z,4636.00
2023-05-06T10:28:57.573Z,4912.00
2023-05-06T10:29:57.563Z,5160.00
2023-05-06T10:30:58.266Z,5276.00
2023-05-06T10:31:57.867Z,5328.00
2023-05-06T10:32:57.698Z,5460.00
2023-05-06T10:33:57.525Z,5472.00
2023-05-06T10:34:57.693Z,5420.00
2023-05-06T10:35:57.460Z,5440.00
2023-05-06T10:36:57.755Z,5264.00
2023-05-06T10:37:57.467Z,5244.00
2023-05-06T10:38:57.469Z,5924.00
2023-05-06T10:39:57.411Z,6612.00
2023-05-06T10:40:57.444Z,6504.00
2023-05-06T10:41:57.443Z,6004.00
2023-05-06T10:42:57.416Z,5252.00
2023-05-06T10:43:57.542Z,4924.00
2023-05-06T10:44:57.414Z,5004.00
2023-05-06T10:45:57.376Z,5144.00
2023-05-06T10:46:57.367Z,5348.00
2023-05-06T10:47:57.505Z,5448.00
2023-05-06T10:48:57.347Z,5536.00
2023-05-06T10:49:57.306Z,5652.00
2023-05-06T10:50:57.301Z,5700.00
2023-05-06T10:51:57.753Z,6032.00
2023-05-06T10:52:57.804Z,6616.00
2023-05-06T10:53:57.269Z,7236.00
2023-05-06T10:54:57.280Z,7760.00
2023-05-06T10:55:57.228Z,8132.00
2023-05-06T10:56:57.245Z,8104.00
2023-05-06T10:57:57.247Z,8012.00
2023-05-06T10:58:57.235Z,7904.00
2023-05-06T10:59:57.192Z,7216.00
2023-05-06T11:00:57.240Z,6176.00
2023-05-06T11:01:57.211Z,5820.00
2023-05-06T11:02:57.257Z,5612.00
2023-05-06T11:03:57.134Z,5472.00
2023-05-06T11:04:57.210Z,5336.00
2023-05-06T11:05:57.163Z,5412.00
2023-05-06T11:06:57.124Z,5628.00
2023-05-06T11:07:57.122Z,6244.00
2023-05-06T11:08:57.144Z,6928.00
2023-05-06T11:09:57.127Z,7216.00
2023-05-06T11:10:57.097Z,7416.00
2023-05-06T11:11:57.038Z,7456.00
2023-05-06T11:12:57.143Z,7788.00
2023-05-06T11:13:57.044Z,7788.00
2023-05-06T11:14:57.068Z,7972.00
2023-05-06T11:15:57.072Z,8088.00
2023-05-06T11:16:57.086Z,7832.00
2023-05-06T11:17:57.134Z,7428.00
2023-05-06T11:18:57.011Z,7168.00
2023-05-06T11:19:56.952Z,7020.00
2023-05-06T11:20:57.059Z,6904.00
2023-05-06T11:21:56.987Z,7184.00
2023-05-06T11:22:57.070Z,7200.00
2023-05-06T11:23:56.906Z,7060.00
2023-05-06T11:24:56.918Z,6940.00
2023-05-06T11:25:56.953Z,6620.00
2023-05-06T11:26:56.928Z,6268.00
2023-05-06T11:27:56.910Z,6044.00
2023-05-06T11:28:56.929Z,5912.00
2023-05-06T11:29:56.861Z,5840.00
2023-05-06T11:30:56.928Z,5832.00
2023-05-06T11:31:56.856Z,5924.00
2023-05-06T11:32:56.893Z,5972.00
2023-05-06T11:33:56.844Z,5928.00
2023-05-06T11:34:56.824Z,5840.00
2023-05-06T11:35:56.798Z,6108.00
2023-05-06T11:36:56.894Z,6600.00
2023-05-06T11:37:56.785Z,7000.00
2023-05-06T11:38:56.775Z,7036.00
2023-05-06T11:39:56.748Z,7392.00
2023-05-06T11:40:57.012Z,7116.00
2023-05-06T11:41:56.984Z,6980.00
2023-05-06T11:42:56.894Z,6044.00
2023-05-06T11:43:56.700Z,5836.00
2023-05-06T11:44:56.744Z,5992.00
2023-05-06T11:45:56.946Z,6212.00
2023-05-06T11:46:57.033Z,6504.00
2023-05-06T11:47:56.758Z,6628.00
2023-05-06T11:48:56.835Z,6944.00
2023-05-06T11:49:56.741Z,6620.00
2023-05-06T11:50:57.157Z,6232.00
2023-05-06T11:51:56.655Z,5384.00
2023-05-06T11:52:57.044Z,5172.00
2023-05-06T11:53:56.896Z,4980.00
2023-05-06T11:54:56.761Z,4976.00
2023-05-06T11:55:56.645Z,4844.00
2023-05-06T11:56:56.705Z,4520.00
2023-05-06T11:57:56.607Z,4636.00
2023-05-06T11:58:56.543Z,4000.00
2023-05-06T11:59:56.534Z,3872.00
2023-05-06T12:00:56.569Z,3828.00
2023-05-06T12:01:56.540Z,3956.00
2023-05-06T12:02:56.561Z,4200.00
2023-05-06T12:03:56.751Z,4552.00
2023-05-06T12:04:56.555Z,4804.00
2023-05-06T12:05:56.491Z,4528.00
2023-05-06T12:06:56.434Z,3872.00
2023-05-06T12:07:56.465Z,3372.00
2023-05-06T12:08:56.412Z,3144.00
2023-05-06T12:09:56.521Z,3296.00
2023-05-06T12:10:56.435Z,3120.00
2023-05-06T12:11:56.418Z,3292.00
2023-05-06T12:12:56.395Z,3432.00
2023-05-06T12:13:56.401Z,3592.00
2023-05-06T12:14:56.502Z,3912.00
2023-05-06T12:15:56.470Z,4472.00
2023-05-06T12:16:56.325Z,4588.00
2023-05-06T12:17:56.369Z,4132.00
2023-05-06T12:18:56.334Z,4412.00
2023-05-06T12:19:56.640Z,4668.00
2023-05-06T12:20:56.342Z,5048.00
2023-05-06T12:21:56.296Z,5460.00
2023-05-06T12:22:56.301Z,6080.00
2023-05-06T12:23:56.356Z,6832.00
2023-05-06T12:24:56.262Z,7056.00
2023-05-06T12:25:56.299Z,6852.00
2023-05-06T12:26:56.234Z,6716.00
2023-05-06T12:27:57.898Z,6512.00